Byron, Michigan
Current Conditions -  °F | °C
As of 3:35 AM on Thursday 18 Dec 2014 (Local Time) from KOZW Reporting Station
Overcast Overcast  
Wind Chill: 18°   Ceiling: 2300
Heat Index: 28°   Visibility: 10mi
Dew Point: 24°   Wind: 12mph
Humidity: 86%   Direction: 270°W
Pressure: 30.17"   Gusts: NA
Location:  42.82°N, 83.94°W
Report Text: KOZW 180835Z AUTO 27010KT 10SM BKN023 OVC033 M02/M04 A3017 RMK AO2 T10221043
Loading
Personal Weather Stations






























Interactive Weather Map New forecast layout! Learn more

10-Day Weather Forecast

Advertisements
Track Severe Weather on mobile